Current | Forecast
Updated: 2:00 PM JST on August 22, 2017
Observed at Sendai Airport, Japan
Temperature 79°F
Humidity 94%
Dew Point 77°F
Wind SSE at 6 mph
Pressure 29.83 in (Falling)
Conditions Light Rain Showers
Visibility 6.2 miles
UV 4 out of 16
Clouds (FEW) : 1500 ft
Scattered Clouds (SCT) : 4000 ft
Mostly Cloudy (BKN) : 5000 ft
Yesterday's Maximum 75°F
Yesterday's Minimum 70°F approx.
Yesterday's Cooling Degree Days 8 approx.
Sunrise4:57 AM JST
Sunset6:21 PM JST
Moon Rise5:05 AM JST
Moon Set6:42 PM JST
Moon PhaseMoon Phase
New Moon
Raw METARMETAR RJSS 220500Z 15005KT 9999 -SHRA FEW015 SCT040 BKN050 26/25 Q1010


Monday
. High: 68° F.
Tuesday
. High: 69° F.
Wednesday
. High: 66° F.
Thursday
. High: 68° F.
Friday
. High: 71° F.
Saturday
. High: 69° F.
Sunday
. High: 73° F.
Monday
. High: 64° F.

Units: English | Metric

Find the Weather for any City, State or Zipcode, or Country:

U.S. State List | Severe Weather | Tropical Storms | Ski Conditions
United States | Canada | Central America | South America | Asia | Europe | Australia | Africa | Islands

Weather Underground

© Copyright 2017
The Weather Company, LLC